Date,TemperatureHighF,TemperatureAvgF,TemperatureLowF,DewpointHighF,DewpointAvgF,DewpointLowF,HumidityHigh,HumidityAvg,HumidityLow,PressureMaxIn,PressureMinIn,WindSpeedMaxMPH,WindSpeedAvgMPH,GustSpeedMaxMPH,PrecipitationSumIn
2013-1-1,39,31,24,36,28,19,92,87,79,30.29,30.04,11,4,0,0.00
2013-1-2,38,28,20,26,20,-100,84,73,60,30.31,30.19,12,-9,0,0.00
2013-1-3,46,35,26,30,24,21,85,67,41,30.46,30.30,6,1,0,0.00
2013-1-4,49,36,24,26,23,19,85,62,37,30.47,30.31,14,2,0,0.00
2013-1-5,48,41,35,32,29,22,77,64,47,30.30,30.15,16,3,0,0.00
2013-1-6,49,38,31,29,21,16,78,54,27,30.41,30.26,10,2,0,0.00
2013-1-7,52,40,28,28,24,18,72,55,38,30.33,30.09,12,3,0,0.00
2013-1-8,55,44,32,44,34,24,90,68,44,30.16,30.02,15,3,0,0.10
2013-1-9,54,50,46,47,43,39,92,79,58,30.30,30.12,15,5,0,0.01
2013-1-10,56,52,50,53,48,43,92,86,71,30.12,29.77,11,4,0,0.13
2013-1-11,69,56,45,47,44,42,90,67,38,29.83,29.64,18,7,0,0.00
2013-1-12,60,40,27,49,29,20,86,68,27,30.07,29.73,17,5,0,0.13
2013-1-13,31,25,20,20,11,-100,76,63,51,30.39,30.01,14,-30,0,0.00
2013-1-14,36,27,21,17,14,10,73,60,39,30.50,30.34,13,3,0,0.00
2013-1-15,34,27,21,19,14,11,79,61,38,30.34,30.20,11,3,0,0.00
2013-1-16,48,34,20,18,15,12,74,48,26,30.23,30.10,8,1,0,0.00
2013-1-17,54,42,33,31,26,18,74,54,36,30.47,30.19,13,3,0,0.00
2013-1-18,58,45,32,32,28,24,75,54,30,30.48,30.17,19,6,0,0.00
2013-1-19,66,52,44,35,33,32,64,50,30,30.17,30.04,14,5,0,0.00
2013-1-20,63,48,34,41,30,15,67,49,40,30.27,30.07,15,6,0,0.00
2013-1-21,42,32,25,15,13,9,58,46,27,30.42,30.27,15,5,0,0.00
2013-1-22,53,36,24,27,21,15,70,55,36,30.31,30.17,12,3,0,0.00
2013-1-23,62,46,32,42,33,23,73,61,43,30.24,30.09,12,3,0,0.00
2013-1-24,46,41,37,36,24,19,69,51,41,30.26,30.09,15,6,0,0.00
2013-1-25,50,39,33,29,22,-100,64,53,43,30.24,30.11,9,-19,0,0.00
2013-1-26,54,45,34,35,28,25,74,54,38,30.23,30.07,12,4,0,0.00
2013-1-27,60,53,46,55,48,34,91,83,61,30.07,29.83,18,10,0,0.00
2013-1-28,74,68,58,61,60,55,89,76,61,29.88,29.70,24,10,0,0.00
2013-1-29,71,59,43,62,54,40,91,83,65,29.69,29.39,17,6,0,0.63
2013-1-30,42,36,29,39,23,-100,89,63,49,30.07,29.56,19,-16,0,0.00
2013-1-31,51,34,23,27,20,8,79,60,30,30.46,30.02,15,5,0,0.00
2013-2-1,43,30,17,19,10,0,58,45,29,30.48,30.16,11,3,0,0.00
2013-2-2,58,44,30,31,25,19,69,51,31,30.26,30.16,9,1,0,0.00
2013-2-3,57,48,41,30,25,19,62,41,24,30.29,29.91,11,3,0,0.00
2013-2-4,68,56,46,39,32,27,60,41,25,29.92,29.77,14,5,0,0.00
2013-2-5,68,51,35,41,32,27,80,54,23,30.01,29.89,9,1,0,0.00
2013-2-6,64,54,43,48,39,32,73,58,46,30.03,29.86,18,5,0,0.00
2013-2-7,60,52,44,53,46,36,88,80,70,30.11,29.80,16,6,0,0.00
2013-2-8,52,42,34,36,32,29,84,68,43,30.31,30.12,11,3,0,0.00
2013-2-9,44,40,38,41,33,-100,89,78,66,30.15,29.73,15,-5,0,0.12
2013-2-10,62,52,44,50,33,21,92,55,22,30.03,29.61,20,7,0,0.10
2013-2-11,54,44,35,25,23,19,63,45,27,30.21,30.02,9,2,0,0.00
2013-2-12,43,39,34,37,30,24,90,71,50,30.10,29.93,12,5,0,0.13
2013-2-13,56,42,34,37,29,-100,91,67,36,30.04,29.91,12,-19,0,0.00
2013-2-14,61,47,35,33,29,24,66,50,34,30.18,29.94,11,3,0,0.00
2013-2-15,46,38,30,29,17,8,70,45,23,30.39,30.18,14,4,0,0.00
2013-2-16,44,35,27,25,14,6,72,44,25,30.39,30.07,12,3,0,0.00
2013-2-17,69,51,34,32,26,19,70,42,21,30.07,29.73,19,8,0,0.00
2013-2-18,62,54,39,50,36,24,70,52,35,30.12,29.59,25,11,0,0.00
2013-2-19,52,38,30,23,12,-100,67,43,28,30.34,30.12,11,-72,0,0.00
2013-2-20,39,35,33,32,27,19,90,75,47,30.27,30.00,10,2,0,0.45
2013-2-21,35,31,28,33,22,-100,91,83,79,30.00,29.67,15,-60,0,0.57
2013-2-22,39,30,22,21,17,15,76,60,41,30.16,29.96,12,3,0,0.00
2013-2-23,46,34,22,23,19,15,75,57,35,30.13,29.94,6,1,0,0.00
2013-2-24,59,45,31,37,30,22,75,59,40,29.96,29.73,17,4,0,0.00
2013-2-25,45,40,34,36,34,31,90,80,62,29.79,29.43,20,8,0,0.36
2013-2-26,42,37,33,32,31,28,91,78,65,29.91,29.46,16,6,0,0.11
2013-2-27,48,38,32,30,26,22,80,65,37,30.14,29.90,16,5,0,0.00
2013-2-28,47,38,32,28,26,24,76,63,45,30.22,30.14,11,5,0,0.00
2013-3-1,38,35,31,25,22,15,65,59,49,30.32,30.19,12,5,0,0.00
2013-3-2,47,36,28,19,17,14,63,47,28,30.39,30.19,12,3,0,0.00
2013-3-3,62,47,32,31,23,-100,61,42,27,30.18,29.66,21,-3,0,0.00
2013-3-4,73,58,45,42,37,31,67,48,27,29.91,29.51,13,6,0,0.00
2013-3-5,49,42,36,35,22,13,82,47,27,30.36,29.92,20,7,0,0.07
2013-3-6,50,39,28,24,17,-100,66,45,25,30.44,30.20,10,-9,0,0.00
2013-3-7,65,51,37,29,26,24,63,41,22,30.21,30.04,18,7,0,0.00
2013-3-8,59,53,47,40,35,28,67,50,40,30.15,29.93,18,8,0,0.00
2013-3-9,63,58,53,56,48,35,90,69,41,29.93,29.61,29,9,0,0.26
2013-3-10,56,43,33,52,34,-100,90,75,65,30.03,29.59,19,-5,0,0.02
2013-3-11,52,40,30,23,18,11,70,46,19,30.04,29.95,15,4,0,0.00
2013-3-12,60,48,38,36,24,15,62,40,24,30.31,30.01,12,3,0,0.00
2013-3-13,57,45,35,24,20,17,60,39,23,30.48,30.32,8,2,0,0.00
2013-3-14,78,60,42,41,32,23,54,37,23,30.31,30.03,18,6,0,0.00
2013-3-15,83,68,55,48,42,-100,66,42,22,30.05,29.70,19,-4,0,0.00
2013-3-16,77,64,49,48,43,38,65,49,35,29.79,29.66,17,6,0,0.00
2013-3-17,49,44,41,42,38,36,89,81,65,29.81,29.68,18,7,0,0.00
2013-3-18,62,49,40,41,33,22,89,60,25,30.02,29.67,13,4,0,0.00
2013-3-19,60,49,39,28,25,20,61,41,24,30.22,29.99,17,4,0,0.00
2013-3-20,52,44,36,32,23,14,77,48,24,30.39,30.06,15,3,0,0.00
2013-3-21,42,39,38,33,23,-100,81,58,41,30.05,29.73,14,-17,0,0.04
2013-3-22,46,41,36,38,36,33,90,81,69,29.90,29.77,9,4,0,0.46
2013-3-23,43,41,39,41,36,-100,92,87,79,29.89,29.71,11,-7,0,0.00
2013-3-24,40,35,32,36,25,17,91,68,41,30.18,29.76,22,7,0,0.01
2013-3-25,39,34,29,21,18,13,67,52,37,30.39,30.17,15,5,0,0.00
2013-3-26,52,38,26,22,18,14,71,48,25,30.46,30.27,10,2,0,0.00
2013-3-27,66,50,34,30,25,21,63,41,24,30.27,30.06,20,7,0,0.00
2013-3-28,72,60,47,49,40,27,62,49,36,30.15,30.01,16,7,0,0.00
2013-3-29,71,62,55,57,53,49,89,73,57,30.09,30.01,11,2,0,0.21
2013-3-30,75,64,55,59,55,51,89,73,55,30.03,29.77,15,5,0,0.19
2013-3-31,72,62,54,56,46,38,89,58,31,29.96,29.81,15,4,0,0.00
2013-4-1,62,52,45,43,39,29,75,61,43,30.13,29.93,19,6,0,0.00
2013-4-2,45,41,38,38,35,29,90,80,54,30.23,30.12,20,8,0,0.13
2013-4-3,45,37,39,37,18,-100,90,64,50,30.23,30.14,13,-112,0,0.13
2013-4-4,61,50,39,39,35,29,89,61,32,30.18,30.06,11,2,0,0.10
2013-4-5,70,57,40,43,39,35,85,56,28,30.18,29.91,15,4,0,0.00
2013-4-6,76,65,55,50,45,-100,67,50,34,29.90,29.72,27,-3,0,0.00
2013-4-7,66,60,58,57,46,-100,83,70,70,29.83,29.66,22,-50,0,0.00
2013-4-8,74,68,63,60,58,56,86,71,60,29.71,29.58,20,8,0,0.00
2013-4-9,80,72,52,62,59,44,77,64,51,29.74,29.58,18,9,0,0.00
2013-4-10,50,40,36,42,35,31,88,84,74,29.95,29.74,17,6,0,0.47
2013-4-11,56,44,34,32,27,22,79,54,31,29.95,29.75,16,4,0,0.00
2013-4-12,65,49,39,35,30,26,70,51,26,30.01,29.80,13,2,0,0.00
2013-4-13,72,61,50,48,43,34,78,52,41,30.02,29.69,14,6,0,0.14
2013-4-14,81,69,57,57,49,45,65,51,33,29.69,29.43,23,9,0,0.00
2013-4-15,77,63,54,56,45,35,70,53,42,29.82,29.61,14,8,0,0.02
2013-4-16,61,54,51,51,46,42,86,75,66,29.95,29.78,14,6,0,0.00
2013-4-17,82,69,52,68,60,47,87,73,56,29.89,29.48,20,8,0,0.08
2013-4-18,69,65,64,61,61,60,90,86,76,29.53,29.46,12,4,0,1.42
2013-4-22,76,69,52,50,46,40,66,45,36,30.06,29.80,24,9,0,0.00
2013-4-23,68,46,37,53,39,-100,90,80,49,30.20,29.75,14,-5,0,0.06
2013-4-24,59,46,35,32,27,18,80,51,25,30.31,30.18,15,4,0,0.00
2013-4-25,71,46,39,32,8,-100,71,36,18,30.34,30.20,12,-160,0,0.00
2013-5-1,84,77,69,61,54,-100,66,48,38,29.97,29.85,15,-18,0,0.00
2013-5-2,68,44,36,53,38,33,88,78,58,30.37,29.98,19,8,0,0.15
2013-5-3,60,49,36,34,28,21,88,52,22,30.34,29.95,22,6,0,0.00
2013-5-4,48,45,40,43,38,32,86,78,56,30.02,29.87,14,4,0,0.11
2013-5-5,60,51,44,48,44,39,87,77,60,30.11,30.02,10,2,0,0.00
2013-5-6,71,56,48,52,49,45,90,77,48,30.10,29.97,7,2,0,0.00
2013-5-7,79,65,51,54,50,42,89,62,28,30.04,29.91,12,1,0,0.00
2013-5-8,83,71,59,59,53,48,74,54,36,29.96,29.80,15,5,0,0.03
2013-5-9,74,66,59,64,60,55,90,83,63,29.92,29.78,20,4,0,0.91
2013-5-10,74,66,59,63,56,51,92,74,47,30.02,29.86,17,3,0,1.32
2013-5-11,80,66,54,55,47,34,85,55,27,30.18,30.02,20,4,0,0.00
2013-5-12,73,62,49,44,37,30,58,42,23,30.25,30.08,10,1,0,0.00
2013-5-13,88,72,56,56,47,41,65,43,26,30.09,29.94,17,5,0,0.00
2013-5-14,90,78,66,55,50,45,54,38,24,29.98,29.84,22,7,0,0.00
2013-5-15,75,61,64,66,38,-100,90,60,43,29.89,29.74,20,-132,0,0.41
2013-5-16,76,66,63,64,58,-100,90,79,63,29.82,29.73,9,-20,0,0.00
2013-5-17,82,68,60,68,57,-100,92,76,60,29.86,29.79,9,-41,0,0.00
2013-5-18,88,78,71,72,70,67,90,76,58,29.81,29.66,19,5,0,0.00
2013-5-19,78,78,77,69,69,69,76,76,75,29.72,29.72,7,6,0,0.00
2013-6-3,80,74,59,64,60,55,88,63,51,29.97,29.79,10,3,0,0.00
2013-6-4,81,74,66,67,64,61,88,72,59,29.92,29.76,13,3,0,0.35
2013-6-5,84,74,66,67,64,62,91,74,52,29.92,29.78,13,3,0,1.02
2013-6-6,79,71,65,64,58,50,88,64,38,29.90,29.84,12,4,0,0.00
2013-6-7,83,72,61,57,54,47,78,55,32,29.94,29.84,11,2,0,0.00
2013-6-8,83,73,62,62,57,53,76,58,37,29.87,29.72,16,4,0,0.00
2013-6-9,89,79,69,63,58,51,74,51,27,29.83,29.71,12,3,0,0.00
2013-6-10,95,83,72,68,64,58,75,54,32,29.85,29.76,20,6,0,0.00
2013-6-11,94,86,75,70,66,61,72,54,33,29.88,29.79,20,6,0,0.00
2013-6-12,94,86,76,72,68,64,79,58,39,29.88,29.80,21,8,0,0.00
2013-6-13,95,84,77,71,68,66,77,60,42,29.94,29.83,7,2,0,0.00
2013-6-14,95,84,75,74,70,67,76,63,45,29.92,29.80,15,3,0,0.00
2013-6-15,87,79,74,74,71,67,85,77,58,29.92,29.86,16,4,0,0.02
2013-6-16,91,77,70,73,69,65,90,79,54,29.93,29.81,12,2,0,0.85
2013-6-17,80,73,67,69,66,64,90,79,60,29.93,29.78,13,2,0,0.59
2013-6-18,90,78,68,68,64,60,88,66,38,29.96,29.85,10,1,0,0.00
2013-6-19,86,78,67,68,65,62,85,66,46,29.96,29.86,15,2,0,0.00
2013-6-20,92,82,73,74,70,65,79,66,53,29.95,29.84,18,5,0,0.00
2013-6-21,93,84,77,72,69,65,80,62,40,29.96,29.87,17,6,0,0.00
2013-6-22,92,83,74,70,67,64,82,60,41,29.93,29.80,17,5,0,0.00
2013-6-23,92,84,76,71,68,65,79,61,42,29.87,29.78,21,8,0,0.00
2013-6-24,92,83,76,71,68,64,78,62,43,29.93,29.81,19,6,0,0.00
2013-6-25,90,83,76,71,69,68,79,65,50,29.84,29.72,21,7,0,0.00
2013-6-26,95,85,78,74,70,67,74,62,48,29.82,29.72,18,6,0,0.00
2013-6-27,98,86,76,77,72,62,85,63,44,29.86,29.76,11,2,0,0.00
2013-6-28,97,88,78,68,62,54,67,44,27,29.87,29.73,13,3,0,0.00
2013-6-29,93,83,72,59,54,49,61,39,24,29.84,29.73,17,4,0,0.00
2013-6-30,84,77,67,56,54,51,67,46,34,29.91,29.79,15,5,0,0.00
2013-7-1,86,75,66,58,52,44,73,47,26,29.99,29.91,15,4,0,0.00
2013-7-2,87,76,64,55,50,44,64,42,23,30.04,29.96,11,2,0,0.00
2013-7-3,86,76,62,58,50,46,70,43,26,30.04,29.92,9,1,0,0.00
2013-7-4,90,77,65,61,58,50,74,52,30,29.98,29.87,15,2,0,0.00
2013-7-5,92,79,66,64,61,54,80,55,28,29.94,29.82,12,2,0,0.00
2013-7-6,88,79,71,65,62,60,71,58,45,29.92,29.84,13,3,0,0.00
2013-7-7,93,83,72,67,64,60,74,55,34,29.95,29.86,13,3,0,0.00
2013-7-8,94,83,74,72,68,65,75,62,44,30.00,29.91,11,3,0,0.00
2013-7-9,98,88,77,69,68,66,73,53,36,29.98,29.85,16,5,0,0.00
2013-7-10,102,90,79,70,65,62,62,45,27,29.91,29.80,9,2,0,0.00
2013-7-11,101,88,77,72,69,64,79,56,35,29.90,29.79,7,1,0,0.00
2013-7-12,95,85,76,71,69,68,79,60,41,29.93,29.85,13,2,0,0.00
2013-7-13,94,84,74,69,64,60,74,52,36,29.96,29.83,12,3,0,0.00
2013-7-14,89,80,73,63,60,54,69,53,31,29.97,29.84,15,2,0,0.00
2013-7-15,80,73,66,68,64,61,90,74,59,30.10,29.96,13,3,0,0.60
2013-7-16,90,78,71,71,68,64,90,73,44,30.17,30.08,6,1,0,0.08
2013-7-17,93,83,73,71,68,65,86,63,40,30.22,30.09,9,1,0,0.00
2013-7-18,95,86,76,71,68,63,80,57,35,30.12,29.93,10,1,0,0.00
2013-7-19,97,86,75,70,68,65,80,57,36,29.95,29.81,10,2,0,0.00
2013-7-20,96,84,74,70,68,63,79,61,35,29.87,29.73,12,3,0,0.00
2013-7-21,90,78,72,75,71,67,91,79,57,29.86,29.73,11,2,0,0.60
2013-7-22,95,85,78,75,71,69,81,64,46,29.84,29.69,14,4,0,0.17
2013-7-23,100,90,80,73,71,69,73,55,37,29.82,29.68,11,3,0,0.00
2013-8-2,95,91,86,77,75,73,65,59,51,29.78,29.73,10,4,0,0.00
2013-8-3,85,80,73,73,71,69,89,75,60,29.97,29.78,12,3,0,0.42
2013-8-4,89,81,77,77,73,69,88,77,64,30.00,29.86,13,2,0,0.00
2013-8-5,98,86,76,73,72,69,86,65,40,29.90,29.72,19,4,0,0.00
2013-8-6,99,89,78,74,70,67,79,55,38,29.77,29.68,15,3,0,0.00
2013-8-7,96,87,79,77,72,69,76,62,46,29.80,29.71,17,3,0,0.00
2013-8-8,85,80,72,74,71,68,88,76,65,29.86,29.73,13,2,0,0.18
2013-8-9,87,78,71,73,70,68,91,78,56,29.97,29.81,10,3,0,0.45
2013-8-10,87,77,69,69,67,64,88,73,53,30.05,29.95,11,3,0,0.00
2013-8-11,90,80,73,72,70,68,86,72,51,30.01,29.92,3,0,0,0.00
2013-8-12,84,79,74,74,71,68,87,79,64,30.00,29.87,20,1,0,0.08
2013-8-13,83,75,71,72,70,67,91,82,63,29.98,29.89,12,1,0,0.73
2013-8-14,85,75,67,68,63,58,85,68,44,30.06,29.96,8,2,0,0.00
2013-8-15,83,73,64,62,60,57,83,66,47,30.05,29.92,12,1,0,0.00
2013-8-16,83,73,65,64,62,60,89,69,46,30.04,29.91,9,1,0,0.17
2013-8-17,82,73,64,62,59,56,83,63,42,30.08,29.98,11,2,0,0.00
2013-8-18,86,76,65,66,62,59,85,64,40,30.07,29.96,11,1,0,0.00
2013-8-19,87,78,68,67,64,61,86,65,46,30.04,29.92,10,2,0,0.00
2013-8-20,90,79,69,67,65,61,82,63,38,30.00,29.91,10,2,0,0.00
2013-8-21,93,81,69,68,65,61,86,61,34,30.01,29.94,11,2,0,0.00
2013-8-22,93,83,72,70,67,63,82,60,39,30.02,29.91,7,1,0,0.00
2013-8-23,93,83,75,71,68,66,77,62,41,29.98,29.88,12,1,0,0.00
2013-8-24,93,83,74,72,69,66,85,65,42,30.04,29.93,14,2,0,0.00
2013-8-25,94,84,74,73,70,67,84,64,42,30.11,30.02,10,2,0,0.00
2013-8-26,92,83,74,70,69,67,85,64,44,30.12,30.00,10,2,0,0.00
2013-8-27,92,82,73,69,67,64,76,60,42,30.04,29.93,13,3,0,0.00
2013-8-28,94,82,74,70,65,-100,85,61,43,29.99,29.91,13,-19,0,0.00
2013-8-29,98,87,77,71,68,64,77,56,34,29.98,29.88,10,1,0,0.00
2013-8-30,99,88,77,71,67,64,76,53,32,29.91,29.76,11,3,0,0.00
2013-8-31,100,89,79,70,67,64,66,50,31,29.81,29.69,10,2,0,0.00
2013-9-1,93,85,77,73,69,65,74,58,47,29.83,29.69,6,2,0,0.06
2013-9-2,90,81,73,71,62,56,80,55,31,29.94,29.81,10,3,0,0.00
2013-9-3,92,79,68,63,59,53,79,53,28,29.99,29.89,9,2,0,0.00
2013-9-4,93,80,67,65,61,57,76,54,30,30.05,29.95,6,0,0,0.00
2013-9-5,94,81,69,64,61,58,74,53,31,30.10,29.98,7,1,0,0.00
2013-9-6,94,81,69,64,60,-100,73,52,32,30.05,29.90,11,-9,0,0.00
2013-9-7,98,84,72,65,62,58,69,50,27,29.95,29.83,10,2,0,0.00
2013-9-8,97,87,76,66,64,59,64,48,28,29.89,29.78,13,2,0,0.00
2013-9-9,95,85,73,65,62,57,67,49,28,29.91,29.82,15,3,0,0.00
2013-9-10,94,83,75,65,62,58,67,50,32,30.02,29.88,13,2,0,0.00
2013-9-11,95,84,72,64,61,57,74,49,29,30.07,29.94,9,1,0,0.00
2013-9-12,97,83,75,68,66,61,76,59,32,30.02,29.91,13,2,0,0.00
2013-9-13,87,78,69,67,57,48,79,52,29,30.00,29.89,12,5,0,0.00
2013-9-14,85,74,62,59,54,51,72,52,35,29.99,29.88,12,2,0,0.00
2013-9-15,90,78,66,66,58,50,63,50,39,29.96,29.89,13,4,0,0.00
2013-9-16,86,77,72,67,66,63,84,69,47,30.12,29.94,11,2,0,0.09
2013-9-17,84,75,68,67,66,64,89,74,53,30.07,29.89,7,1,0,0.10
2013-9-18,92,81,73,69,67,64,81,65,42,29.93,29.80,15,4,0,0.07
2013-9-19,90,79,72,70,68,65,81,68,48,29.89,29.77,13,3,0,0.01
2013-9-20,72,69,62,67,61,53,91,76,52,29.95,29.86,13,3,0,0.48
2013-9-21,80,68,55,54,51,47,86,57,32,29.98,29.86,6,1,0,0.00
2013-9-22,79,68,55,52,48,43,82,53,29,29.93,29.78,11,1,0,0.00
2013-9-23,80,69,56,55,52,48,83,58,36,29.84,29.71,14,3,0,0.00
2013-9-24,83,72,63,56,54,51,74,55,35,29.84,29.79,14,4,0,0.00
2013-9-25,86,72,60,58,56,52,83,59,32,29.85,29.72,5,0,0,0.00
2013-9-26,92,77,64,60,58,54,80,55,28,29.84,29.73,14,4,0,0.00
2013-9-27,89,78,67,61,58,53,78,54,31,29.90,29.77,16,5,0,0.00
2013-9-28,79,69,60,67,61,56,91,76,57,30.03,29.77,12,4,0,1.11
2013-9-29,77,65,54,58,52,45,92,68,32,30.05,29.89,11,2,0,0.00
2013-9-30,83,68,54,63,54,47,86,64,29,29.89,29.76,11,2,0,0.00
2013-10-1,87,75,66,70,65,59,92,72,39,29.89,29.78,12,3,0,0.00
2013-10-2,85,77,70,70,67,65,91,75,53,29.94,29.79,13,3,0,0.00
2013-10-3,86,77,71,70,68,66,87,73,57,29.84,29.70,17,7,0,0.00
2013-10-4,87,79,72,69,67,64,86,69,48,29.80,29.72,16,7,0,0.00
2013-10-5,78,60,50,66,46,36,89,62,33,30.06,29.79,14,3,0,0.53
2013-10-6,67,58,49,44,39,33,74,52,36,30.02,29.95,14,3,0,0.00
2013-10-7,76,61,49,44,39,33,72,47,24,30.14,30.00,6,1,0,0.00
2013-10-8,75,63,51,50,46,41,81,58,30,30.09,29.97,14,3,0,0.00
2013-10-9,78,64,52,55,50,46,84,63,44,30.05,29.95,13,2,0,0.00
2013-10-10,80,67,56,58,54,49,84,64,44,30.02,29.82,11,4,0,0.00
2013-10-11,81,71,62,67,61,54,83,72,59,29.82,29.72,14,6,0,0.00
2013-10-12,75,68,58,67,56,50,85,68,46,30.09,29.78,12,5,0,0.00
2013-10-13,76,68,62,61,54,48,70,62,56,30.23,30.09,10,2,0,0.00
2013-10-14,66,63,59,63,57,51,92,82,63,30.14,29.86,12,3,0,0.80
2013-10-15,68,60,56,65,51,43,91,74,58,30.05,29.83,14,3,0,0.06
2013-10-16,61,53,45,45,40,38,77,62,45,30.14,30.00,12,3,0,0.00
2013-10-17,68,54,43,46,42,40,89,67,39,30.06,29.92,12,1,0,0.00
2013-10-18,57,49,41,46,42,38,89,79,63,30.13,29.96,12,4,0,0.07
2013-10-19,64,49,35,40,35,31,90,65,30,30.16,29.98,11,2,0,0.00
2013-10-20,70,57,44,43,39,34,78,54,28,29.98,29.80,23,4,0,0.00
2013-10-21,60,53,43,46,41,36,78,65,42,30.09,29.89,15,2,0,0.00
2013-10-22,60,46,43,41,38,36,80,75,49,30.08,30.01,7,2,0,0.00
2013-10-24,59,53,44,35,33,29,57,48,40,30.38,30.28,14,4,0,0.00
2013-10-25,59,48,37,39,32,28,73,56,34,30.46,30.20,12,3,0,0.00
2013-10-26,68,56,48,53,46,39,87,70,58,30.19,30.05,9,2,0,0.00
2013-10-27,68,55,41,52,36,-100,87,54,18,30.08,29.94,6,-10,0,0.00
2013-10-28,70,61,54,57,54,50,91,78,57,30.10,29.96,14,3,0,0.00
2013-10-29,74,68,62,66,63,57,87,82,74,30.02,29.87,15,7,0,0.01
2013-10-30,71,68,64,66,63,60,92,86,81,29.93,29.71,17,7,0,1.00
2013-10-31,71,63,53,64,54,43,92,74,46,29.75,29.50,21,4,0,0.33
2013-11-1,71,58,47,45,40,34,79,56,27,30.00,29.75,13,2,0,0.00
2013-11-2,62,53,46,40,33,27,64,50,28,30.23,30.00,15,3,0,0.00
2013-11-3,61,52,40,41,37,33,80,59,40,30.17,29.94,21,6,0,0.00
2013-11-4,64,57,51,52,48,41,86,73,60,30.06,29.91,23,8,0,0.02
2013-11-5,64,59,56,61,57,52,92,91,86,30.05,29.86,13,7,0,0.34
2013-11-6,64,46,38,60,38,33,91,74,53,30.36,29.88,14,4,0,0.41
2013-11-7,65,48,34,40,34,29,89,64,27,30.45,30.30,6,0,0,0.00
2013-11-8,67,54,41,39,35,30,78,52,25,30.30,30.01,23,7,0,0.00
2013-11-9,67,57,50,44,42,38,71,58,34,30.22,30.02,9,3,0,0.00
2013-11-10,69,58,50,46,44,42,79,61,37,30.33,30.21,6,1,0,0.00
2013-11-11,72,58,44,54,47,37,83,68,47,30.41,30.11,17,4,0,0.00
2013-11-12,44,35,30,37,18,12,75,52,32,30.78,30.41,17,6,0,0.00
2013-11-13,51,38,24,23,18,15,78,48,25,30.71,30.30,18,4,0,0.00
2013-11-14,54,44,34,33,24,20,61,46,30,30.30,29.99,16,6,0,0.00
2013-11-15,62,52,44,49,43,33,86,73,56,29.99,29.76,18,6,0,0.08
2013-11-16,74,65,54,63,58,50,90,76,57,29.76,29.50,23,12,0,0.00
2013-11-17,74,68,55,64,40,17,79,43,17,30.07,29.47,19,6,0,0.00
2013-11-18,65,54,45,36,26,20,57,37,19,30.24,30.05,13,2,0,0.00
2013-11-19,58,54,50,31,26,22,45,35,26,30.18,29.96,18,5,0,0.00
2013-11-20,61,54,46,45,34,27,60,47,36,29.97,29.82,19,8,0,0.00
2013-11-21,59,50,34,51,45,31,89,82,56,30.34,29.90,17,5,0,0.17
2013-11-22,34,32,30,31,27,24,88,81,73,30.56,30.33,19,8,0,0.02
2013-11-23,38,34,27,27,19,8,81,57,29,30.69,30.54,19,8,0,0.00
2013-11-24,31,27,22,16,12,9,64,56,48,30.70,30.35,15,3,0,0.00
2013-11-25,36,33,30,30,24,14,83,71,50,30.35,30.20,5,1,0,0.00
2013-11-26,48,38,30,29,24,11,77,59,38,30.38,30.16,17,5,0,0.00
2013-11-27,39,30,21,13,9,6,61,44,27,30.48,30.31,15,2,0,0.00
2013-11-28,57,41,27,28,21,13,61,47,33,30.42,30.27,15,3,0,0.00
2013-11-29,55,42,30,28,24,22,74,52,29,30.48,30.27,13,4,0,0.00
2013-11-30,61,49,40,46,38,28,86,67,54,30.27,30.06,14,4,0,0.00
2013-12-1,56,50,44,51,47,41,91,87,80,30.08,29.85,2,0,0,0.00
2013-12-2,59,51,44,48,46,41,91,83,62,29.85,29.62,9,1,0,0.00
2013-12-3,60,50,44,52,47,42,94,88,70,29.63,29.46,11,2,0,0.00
2013-12-4,48,39,30,44,32,20,89,75,67,30.02,29.58,14,6,0,0.00
2013-12-5,30,25,21,20,14,10,80,65,50,30.31,30.02,19,7,0,0.05
2013-12-6,21,19,15,16,12,3,86,76,57,30.61,30.27,15,7,0,0.03
2013-12-7,22,16,10,11,4,0,68,59,50,30.68,30.31,11,4,0,0.00
2013-12-8,30,26,22,27,21,11,89,81,64,30.30,30.00,6,2,0,0.00
2013-12-9,28,24,19,21,16,12,79,72,60,30.42,30.18,13,4,0,0.00
2013-12-10,35,24,14,19,14,10,83,67,47,30.47,30.25,11,3,0,0.00
2013-12-11,38,29,22,24,19,13,84,67,50,30.62,30.27,17,3,0,0.00
2013-12-12,42,31,19,26,20,12,77,63,49,30.61,30.23,11,3,0,0.00
2013-12-13,39,37,34,37,32,26,92,82,68,30.22,29.80,15,5,0,0.46
2013-12-14,40,35,27,38,29,22,92,79,61,30.27,29.82,17,4,0,0.00
2013-12-15,59,40,25,32,26,21,85,60,29,30.27,30.09,10,3,0,0.00
2013-12-16,68,51,38,32,30,28,66,46,23,30.12,30.01,11,4,0,0.00
2013-12-17,60,48,36,33,30,26,73,52,29,30.28,30.09,13,1,0,0.00
2013-12-18,68,52,39,41,33,27,66,50,28,30.24,29.86,22,6,0,0.00
2013-12-19,63,59,53,56,49,41,81,71,57,29.86,29.62,20,11,0,0.00
2013-12-20,63,39,29,57,32,21,85,76,67,29.95,29.61,17,5,0,0.11
2013-12-21,33,31,29,31,29,25,91,89,85,29.84,29.48,0,0,0,0.60
2013-12-22,32,29,27,30,25,22,91,83,77,30.39,29.76,0,0,0,0.00
2013-12-23,28,25,20,22,19,15,82,78,72,30.62,30.40,0,0,0,0.00
2013-12-24,43,28,15,32,22,11,86,77,61,30.61,30.19,15,2,0,0.00
2013-12-25,42,34,28,33,29,24,86,79,70,30.40,30.26,7,1,0,0.00
2013-12-26,51,37,24,34,28,22,90,71,39,30.40,30.27,9,2,0,0.00
2013-12-27,60,44,32,31,28,24,76,54,28,30.39,30.27,11,2,0,0.00
2013-12-28,58,47,36,37,32,28,77,59,41,30.26,29.89,11,4,0,0.00
2013-12-29,45,32,22,36,20,4,75,63,45,30.31,29.90,20,6,0,0.00
2013-12-30,38,26,15,16,10,2,63,50,37,30.37,30.25,5,1,0,0.00
2013-12-31,55,38,24,24,19,13,71,49,22,30.37,30.14,16,4,0,0.00
2014-1-1,54,39,18,33,25,13,78,60,44,30.26,29.86,19,6,0,0.00
2014-1-2,32,22,13,13,9,4,79,59,43,30.51,30.26,13,3,0,0.00